Terminal Aerodrome Forecast
Issued by NWS

Home | Current Version | Previous Version | Text Only | Print | Product List | Glossary On
Versions: 1 2 3 4 5 6 7 8 9 10 11 12 13 14 15 16 17 18 19 20 21 22 23 24 25 26 27 28 29 30 31 32 33
000
FTUS41 KCTP 182124 AAA
TAFBFD
TAF AMD
KBFD 182124Z 1821/1918 24007KT 1SM -DZ BR OVC002
     FM190000 25009G16KT 1 1/2SM -DZ BR OVC003
     FM190800 25010G18KT 6SM BR OVC003 WS020/26040KT=

USA.gov is the U.S. government's official web portal to all federal, state and local government web resources and services.